Time;durP1;ratioP1;P1;durP2;ratioP2;P2;SDS_P1;SDS_P2;PMS_P1;PMS_P2;Temp;Humidity;BMP_temperature;BMP_pressure;BME280_temperature;BME280_humidity;BME280_pressure;Samples;Min_cycle;Max_cycle;Signal;HPM_P1;HPM_P2
2022/12/19 00:01:37;;;;;;;34.42;21.88;;;4.30;99.90;;;;;;4990798;28;20389;-59
2022/12/19 00:04:42;;;;;;;32.08;18.00;;;4.20;99.90;;;;;;4990491;28;20045;-59
2022/12/19 00:07:47;;;;;;;23.73;12.50;;;4.10;99.90;;;;;;4994113;28;20049;-59
2022/12/19 00:11:00;;;;;;;24.02;12.57;;;4.00;99.90;;;;;;4994228;28;20512;-59
2022/12/19 00:14:04;;;;;;;29.90;14.75;;;4.00;99.90;;;;;;4993437;28;20045;-59
2022/12/19 00:17:08;;;;;;;28.20;17.13;;;4.00;99.90;;;;;;4993791;28;20069;-57
2022/12/19 00:20:12;;;;;;;26.73;13.48;;;4.10;99.90;;;;;;4993929;28;20057;-58
2022/12/19 00:23:17;;;;;;;26.05;13.20;;;4.30;99.90;;;;;;4993098;28;20049;-59
2022/12/19 00:26:29;;;;;;;22.92;14.13;;;4.40;99.90;;;;;;4993999;28;20057;-59
2022/12/19 00:29:34;;;;;;;28.52;15.30;;;4.60;99.90;;;;;;4993487;28;20045;-58
2022/12/19 00:32:38;;;;;;;25.92;15.65;;;4.60;99.90;;;;;;4993424;28;20053;-58
2022/12/19 00:35:43;;;;;;;23.65;14.88;;;4.60;99.90;;;;;;4993080;28;20049;-60
2022/12/19 00:38:49;;;;;;;29.90;14.20;;;4.50;99.90;;;;;;4992257;28;20059;-59
2022/12/19 00:41:53;;;;;;;30.25;17.40;;;4.40;99.90;;;;;;4993368;28;20050;-60
2022/12/19 00:44:59;;;;;;;33.85;18.15;;;4.30;99.90;;;;;;4992535;28;20524;-57
2022/12/19 00:48:04;;;;;;;37.83;18.25;;;4.20;99.90;;;;;;4993106;28;20048;-59
2022/12/19 00:51:19;;;;;;;35.33;16.88;;;4.20;99.90;;;;;;4993422;28;20049;-59
2022/12/19 00:54:24;;;;;;;35.40;17.23;;;4.10;99.90;;;;;;4992121;28;20045;-58
2022/12/19 00:57:28;;;;;;;23.77;13.27;;;4.10;99.90;;;;;;4992571;28;20065;-58
2022/12/19 01:00:31;;;;;;;23.35;12.82;;;4.00;99.90;;;;;;4993329;28;20050;-59
2022/12/19 01:03:35;;;;;;;20.58;10.18;;;3.90;99.90;;;;;;4991838;28;20371;-59
2022/12/19 01:06:41;;;;;;;18.70;9.98;;;3.80;99.90;;;;;;4992611;28;20045;-59
2022/12/19 01:09:46;;;;;;;20.95;11.68;;;3.80;99.90;;;;;;4992977;28;20049;-58
2022/12/19 01:12:50;;;;;;;19.83;13.13;;;3.70;99.90;;;;;;4992378;28;20049;-59
2022/12/19 01:15:55;;;;;;;41.97;14.15;;;3.70;99.90;;;;;;4991479;28;20529;-58
2022/12/19 01:19:00;;;;;;;345.52;38.75;;;3.70;99.90;;;;;;4991462;28;20048;-59
2022/12/19 01:22:04;;;;;;;70.85;17.65;;;3.70;99.90;;;;;;4992632;28;20409;-58
2022/12/19 01:25:08;;;;;;;34.50;15.45;;;3.70;99.90;;;;;;4990766;28;20524;-59
2022/12/19 01:28:16;;;;;;;24.85;14.38;;;3.70;99.90;;;;;;4991223;28;20049;-59
2022/12/19 01:31:21;;;;;;;27.55;15.43;;;3.70;99.90;;;;;;4992471;28;20048;-58
2022/12/19 01:34:26;;;;;;;25.58;15.82;;;3.70;99.90;;;;;;4991338;28;20045;-60
2022/12/19 01:37:30;;;;;;;29.08;15.02;;;3.60;99.90;;;;;;4992252;28;20072;-59
2022/12/19 01:40:36;;;;;;;23.00;14.05;;;3.60;99.90;;;;;;4991384;28;20057;-59
2022/12/19 01:43:55;;;;;;;23.73;13.32;;;3.40;99.90;;;;;;4990374;28;20049;-60
2022/12/19 01:47:00;;;;;;;32.50;16.80;;;3.30;99.90;;;;;;4991207;28;20041;-59
2022/12/19 01:50:04;;;;;;;25.00;15.35;;;3.30;99.90;;;;;;4992211;28;20057;-59
2022/12/19 01:53:10;;;;;;;34.67;17.17;;;3.40;99.90;;;;;;4992006;28;20351;-59
2022/12/19 01:56:27;;;;;;;28.52;16.55;;;3.40;99.90;;;;;;4991199;28;20061;-58
2022/12/19 01:59:40;;;;;;;38.38;19.45;;;3.50;99.90;;;;;;4990852;28;20057;-59
2022/12/19 02:03:22;;;;;;;34.63;18.23;;;3.50;99.90;;;;;;4991211;28;20037;-59
2022/12/19 02:06:29;;;;;;;34.35;18.25;;;3.60;99.90;;;;;;4991998;28;20053;-58
2022/12/19 02:09:34;;;;;;;32.92;18.85;;;3.60;99.90;;;;;;4991598;28;20046;-59
2022/12/19 02:12:42;;;;;;;40.42;23.20;;;3.60;99.90;;;;;;4991365;28;20240;-60
2022/12/19 02:16:24;;;;;;;32.63;19.33;;;3.60;99.90;;;;;;4979762;28;20049;-58
2022/12/19 02:19:34;;;;;;;32.42;18.20;;;3.50;99.90;;;;;;4990315;28;20061;-59
2022/12/19 02:22:50;;;;;;;30.05;17.38;;;3.50;99.90;;;;;;4990342;28;20042;-57
2022/12/19 02:26:10;;;;;;;35.15;19.75;;;3.40;99.90;;;;;;4990469;28;20084;-59
2022/12/19 02:29:52;;;;;;;33.65;17.13;;;3.40;99.90;;;;;;4990520;28;20065;-58
2022/12/19 02:33:13;;;;;;;34.75;18.98;;;3.40;99.90;;;;;;4991126;28;20041;-59
2022/12/19 02:36:30;;;;;;;35.10;18.65;;;3.30;99.90;;;;;;4990517;28;20053;-59
2022/12/19 02:39:43;;;;;;;40.72;21.02;;;3.30;99.90;;;;;;4990064;28;20542;-58
2022/12/19 02:42:53;;;;;;;31.08;18.35;;;3.20;99.90;;;;;;4991214;28;20342;-59
2022/12/19 02:46:00;;;;;;;105.45;21.58;;;3.10;99.90;;;;;;4989998;28;20041;-59
2022/12/19 02:49:08;;;;;;;163.48;24.80;;;3.10;99.90;;;;;;4990388;28;20429;-59
2022/12/19 02:52:18;;;;;;;215.88;27.98;;;3.10;99.90;;;;;;4990418;28;20046;-59
2022/12/19 02:55:25;;;;;;;27.30;15.90;;;3.00;99.90;;;;;;4989576;28;20520;-59
2022/12/19 02:58:51;;;;;;;46.17;17.30;;;2.90;99.90;;;;;;4990080;28;20049;-58
2022/12/19 03:02:07;;;;;;;94.38;17.58;;;2.80;99.90;;;;;;4989841;28;20049;-58
2022/12/19 03:05:25;;;;;;;149.52;17.08;;;2.70;99.90;;;;;;4988957;28;20532;-59
2022/12/19 03:08:56;;;;;;;488.33;38.30;;;2.50;99.90;;;;;;4989528;28;20045;-59
2022/12/19 03:12:07;;;;;;;309.30;27.10;;;2.30;99.90;;;;;;4989767;28;20077;-60
2022/12/19 03:15:12;;;;;;;323.30;29.10;;;2.20;99.90;;;;;;4989843;28;20409;-60
2022/12/19 03:18:18;;;;;;;53.35;14.57;;;2.20;99.90;;;;;;4990123;28;20041;-59
2022/12/19 03:21:40;;;;;;;366.17;34.50;;;2.20;99.90;;;;;;4990785;28;20037;-57
2022/12/19 03:24:43;;;;;;;232.40;29.77;;;2.30;99.90;;;;;;4989548;28;20041;-59
2022/12/19 03:27:49;;;;;;;203.80;23.23;;;2.40;99.90;;;;;;4990873;28;20041;-59
2022/12/19 03:30:54;;;;;;;61.50;14.93;;;2.50;99.90;;;;;;4990679;28;20057;-58
2022/12/19 03:34:27;;;;;;;23.67;14.45;;;2.60;99.90;;;;;;4989720;28;20567;-60
2022/12/19 03:37:36;;;;;;;25.30;14.30;;;2.60;99.90;;;;;;4990215;28;20329;-58
2022/12/19 03:40:44;;;;;;;22.80;14.02;;;2.60;99.90;;;;;;4990371;28;20042;-57
2022/12/19 03:43:48;;;;;;;24.20;14.65;;;2.60;99.90;;;;;;4989707;28;20409;-59
2022/12/19 03:47:04;;;;;;;43.15;12.43;;;2.50;99.90;;;;;;4990238;28;20049;-59
2022/12/19 03:50:09;;;;;;;167.75;16.92;;;2.50;99.90;;;;;;4990114;28;20464;-59
2022/12/19 03:53:25;;;;;;;216.52;21.08;;;2.10;99.90;;;;;;4990120;28;20053;-58
2022/12/19 03:56:47;;;;;;;138.50;19.13;;;1.90;99.90;;;;;;4989913;28;20057;-57
2022/12/19 04:00:00;;;;;;;18.27;11.32;;;1.70;99.90;;;;;;4989670;28;20045;-58
2022/12/19 04:03:06;;;;;;;21.23;11.98;;;1.70;99.90;;;;;;4989741;28;20042;-59
2022/12/19 04:06:12;;;;;;;19.23;11.43;;;1.70;99.90;;;;;;4989754;28;20049;-59
2022/12/19 04:09:18;;;;;;;28.92;11.93;;;1.70;99.90;;;;;;4990124;28;20057;-59
2022/12/19 04:12:32;;;;;;;21.33;12.63;;;1.60;99.90;;;;;;4989932;28;20110;-58
2022/12/19 04:15:48;;;;;;;32.78;15.60;;;1.60;99.90;;;;;;4989128;28;20421;-59
2022/12/19 04:19:02;;;;;;;28.65;13.35;;;1.70;99.90;;;;;;4989822;28;20528;-58
2022/12/19 04:22:30;;;;;;;25.60;11.30;;;2.10;99.90;;;;;;4989986;28;20042;-58
2022/12/19 04:25:39;;;;;;;16.88;10.90;;;2.00;99.90;;;;;;4988830;28;20528;-58
2022/12/19 04:28:55;;;;;;;18.23;9.52;;;1.80;99.90;;;;;;4989898;28;20053;-56
2022/12/19 04:32:02;;;;;;;44.58;9.85;;;1.60;99.90;;;;;;4989764;28;20065;-59
2022/12/19 04:35:06;;;;;;;63.33;11.55;;;1.50;99.90;;;;;;4989100;28;20049;-58
2022/12/19 04:38:10;;;;;;;26.83;9.30;;;1.30;99.90;;;;;;4988896;28;20057;-57
2022/12/19 04:41:14;;;;;;;14.45;8.65;;;1.20;99.90;;;;;;4989755;28;20062;-59
2022/12/19 04:44:18;;;;;;;12.60;8.10;;;1.20;99.90;;;;;;4989036;28;20509;-57
2022/12/19 04:47:23;;;;;;;15.23;8.98;;;1.20;99.90;;;;;;4989666;28;20049;-59
2022/12/19 04:50:27;;;;;;;10.35;7.43;;;1.20;99.90;;;;;;4989722;28;20052;-59
2022/12/19 04:53:31;;;;;;;11.93;7.78;;;1.10;99.90;;;;;;4992406;28;20135;-59
2022/12/19 04:56:35;;;;;;;11.57;7.90;;;1.10;99.90;;;;;;4992764;28;20057;-57
2022/12/19 04:59:39;;;;;;;11.88;8.73;;;1.10;99.90;;;;;;4992913;28;20057;-58
2022/12/19 05:02:44;;;;;;;13.32;9.13;;;1.10;99.90;;;;;;4992940;28;20045;-58
2022/12/19 05:05:48;;;;;;;15.27;9.02;;;1.10;99.90;;;;;;4992427;28;20045;-59
2022/12/19 05:08:52;;;;;;;13.93;9.30;;;1.20;99.90;;;;;;4993044;28;20049;-59
2022/12/19 05:11:56;;;;;;;15.00;8.40;;;1.10;99.90;;;;;;4993089;28;20073;-59
2022/12/19 05:15:00;;;;;;;18.45;8.73;;;1.10;99.90;;;;;;4992227;28;20057;-57
2022/12/19 05:18:04;;;;;;;42.17;11.07;;;1.00;99.90;;;;;;4992656;28;20405;-59
2022/12/19 05:21:09;;;;;;;11.65;7.95;;;1.00;99.90;;;;;;4993100;28;20049;-59
2022/12/19 05:24:14;;;;;;;10.18;7.10;;;1.00;99.90;;;;;;4992075;28;20049;-60
2022/12/19 05:27:18;;;;;;;12.60;8.00;;;0.90;99.90;;;;;;4992638;28;20049;-58
2022/12/19 05:30:23;;;;;;;102.35;12.43;;;0.90;99.90;;;;;;4992443;28;20325;-59
2022/12/19 05:33:27;;;;;;;10.88;7.78;;;0.90;99.90;;;;;;4988145;28;20077;-57
2022/12/19 05:36:31;;;;;;;12.25;8.30;;;0.80;99.90;;;;;;4992545;28;20398;-56
2022/12/19 05:39:34;;;;;;;450.25;30.73;;;0.80;99.90;;;;;;4992718;28;20332;-58
2022/12/19 05:42:39;;;;;;;401.90;29.75;;;0.60;99.90;;;;;;4992400;28;20045;-57
2022/12/19 05:45:43;;;;;;;17.60;8.23;;;0.50;99.90;;;;;;4992482;28;20049;-58
2022/12/19 05:48:47;;;;;;;85.15;16.52;;;0.50;99.90;;;;;;4992209;28;20057;-59
2022/12/19 05:51:51;;;;;;;189.45;20.58;;;0.50;99.90;;;;;;4992473;28;20053;-59
2022/12/19 05:54:56;;;;;;;64.28;16.55;;;0.40;99.90;;;;;;4991653;28;20062;-59
2022/12/19 05:58:01;;;;;;;44.70;14.70;;;0.40;99.90;;;;;;4991684;28;20096;-59
2022/12/19 06:01:13;;;;;;;106.18;17.20;;;0.40;99.90;;;;;;4992134;28;20065;-59
2022/12/19 06:04:17;;;;;;;175.25;21.75;;;0.50;99.90;;;;;;4990073;28;20410;-59
2022/12/19 06:07:21;;;;;;;56.22;13.35;;;0.50;99.90;;;;;;4991097;28;20041;-56
2022/12/19 06:10:25;;;;;;;81.63;18.60;;;0.50;99.90;;;;;;4992277;28;20054;-58
2022/12/19 06:13:29;;;;;;;108.13;18.30;;;0.60;99.90;;;;;;4991115;28;20053;-58
2022/12/19 06:16:34;;;;;;;438.13;40.63;;;0.80;99.90;;;;;;4992021;28;20057;-59
2022/12/19 06:19:40;;;;;;;973.00;91.22;;;1.00;99.90;;;;;;4991274;28;20049;-59
2022/12/19 06:22:44;;;;;;;760.38;65.07;;;1.20;99.90;;;;;;4991398;28;20037;-60
2022/12/19 06:25:48;;;;;;;187.00;18.75;;;1.40;99.90;;;;;;4990994;28;20041;-59
2022/12/19 06:28:54;;;;;;;104.40;14.52;;;1.40;99.90;;;;;;4991006;28;20045;-59
2022/12/19 06:31:57;;;;;;;159.77;20.08;;;1.40;99.90;;;;;;4989243;28;20053;-58
2022/12/19 06:35:02;;;;;;;46.70;11.32;;;1.50;99.90;;;;;;4990735;28;20053;-59
2022/12/19 06:38:06;;;;;;;376.55;26.20;;;1.60;99.90;;;;;;4991061;28;20504;-58
2022/12/19 06:44:35;;;;;;;319.10;32.80;;;1.30;99.90;;;;;;4990538;28;20061;-59
2022/12/19 06:47:39;;;;;;;21.92;10.75;;;1.30;99.90;;;;;;4990812;28;20413;-59
2022/12/19 06:50:43;;;;;;;19.85;11.25;;;1.50;99.90;;;;;;4991027;28;20069;-59
2022/12/19 06:53:47;;;;;;;23.17;13.15;;;1.50;99.90;;;;;;4990487;28;20267;-59
2022/12/19 06:56:51;;;;;;;19.23;11.23;;;1.60;99.90;;;;;;4990722;28;20079;-58
2022/12/19 06:59:57;;;;;;;20.25;11.50;;;1.70;99.90;;;;;;4990874;28;20057;-59
2022/12/19 07:03:03;;;;;;;17.42;9.63;;;1.80;99.90;;;;;;4991212;28;20053;-58
2022/12/19 07:06:08;;;;;;;22.65;10.15;;;1.80;99.90;;;;;;4991168;28;20053;-58
2022/12/19 07:09:11;;;;;;;25.92;11.43;;;1.90;99.90;;;;;;4990821;28;20057;-59
2022/12/19 07:12:15;;;;;;;33.17;12.93;;;1.90;99.90;;;;;;4991130;28;20061;-59
2022/12/19 07:15:20;;;;;;;29.23;14.43;;;2.10;99.90;;;;;;4989697;28;20050;-59
2022/12/19 07:18:23;;;;;;;21.55;12.45;;;2.90;99.90;;;;;;4988796;28;20061;-59
2022/12/19 07:21:28;;;;;;;289.85;30.85;;;4.40;99.90;;;;;;4988014;28;20053;-59
2022/12/19 07:24:33;;;;;;;16.17;11.30;;;5.00;99.90;;;;;;4989439;28;20041;-59
2022/12/19 07:27:38;;;;;;;15.65;9.63;;;5.30;99.90;;;;;;4989672;28;20049;-58
2022/12/19 07:30:43;;;;;;;13.30;8.43;;;6.10;99.90;;;;;;4989451;28;20826;-59
2022/12/19 07:33:49;;;;;;;38.97;8.50;;;6.60;99.90;;;;;;4989764;28;20050;-60
2022/12/19 07:36:52;;;;;;;63.70;9.70;;;6.70;99.90;;;;;;4987636;28;20053;-59
2022/12/19 07:39:58;;;;;;;24.02;8.35;;;6.50;99.90;;;;;;4988280;28;20528;-59
2022/12/19 07:43:04;;;;;;;60.53;9.13;;;7.20;99.90;;;;;;4997309;28;20045;-60
2022/12/19 07:46:08;;;;;;;15.10;6.60;;;7.90;99.90;;;;;;4986496;28;20045;-60
2022/12/19 07:49:12;;;;;;;29.80;7.00;;;7.50;99.90;;;;;;4990828;28;20061;-59
2022/12/19 07:52:17;;;;;;;72.78;8.60;;;8.10;99.90;;;;;;4995200;28;20053;-59
2022/12/19 07:55:20;;;;;;;383.83;19.55;;;8.80;99.90;;;;;;4992780;28;20413;-59
2022/12/19 07:58:24;;;;;;;48.70;6.40;;;9.20;99.90;;;;;;4989756;28;20057;-58
2022/12/19 08:01:29;;;;;;;69.43;6.53;;;9.00;99.90;;;;;;4985419;28;20041;-59
2022/12/19 08:04:33;;;;;;;273.92;14.13;;;9.40;99.90;;;;;;4991366;28;20041;-61
2022/12/19 08:07:36;;;;;;;235.82;14.02;;;9.80;99.90;;;;;;4996627;28;20425;-59
2022/12/19 08:10:42;;;;;;;195.05;11.63;;;9.90;99.90;;;;;;4989538;28;20053;-60
2022/12/19 08:13:47;;;;;;;39.08;8.70;;;10.10;99.90;;;;;;4988264;28;20057;-60
2022/12/19 08:16:51;;;;;;;38.65;7.90;;;10.90;99.90;;;;;;4982836;28;20053;-58
2022/12/19 08:19:55;;;;;;;34.10;6.40;;;11.70;99.90;;;;;;4980822;28;20112;-59
2022/12/19 08:22:59;;;;;;;9.13;5.63;;;12.70;99.90;;;;;;4991158;28;20042;-58
2022/12/19 08:26:09;;;;;;;30.23;5.18;;;13.70;99.90;;;;;;4999458;28;20060;-58
2022/12/19 08:29:13;;;;;;;39.10;4.97;;;14.30;99.90;;;;;;4992546;28;20126;-57
2022/12/19 08:32:18;;;;;;;17.27;4.85;;;14.40;99.90;;;;;;4993347;28;20043;-58
2022/12/19 08:35:22;;;;;;;17.63;4.47;;;13.40;99.90;;;;;;4993242;28;20053;-58
2022/12/19 08:38:26;;;;;;;8.85;4.15;;;13.00;99.90;;;;;;4993065;28;20050;-58
2022/12/19 08:41:30;;;;;;;21.75;4.97;;;12.20;99.90;;;;;;4993220;28;20053;-59
2022/12/19 08:44:34;;;;;;;29.98;5.03;;;12.00;99.90;;;;;;4990384;28;20046;-60
2022/12/19 08:47:38;;;;;;;182.20;10.18;;;12.20;99.90;;;;;;4992766;28;20077;-58
2022/12/19 08:51:13;;;;;;;91.70;6.65;;;12.50;99.90;;;;;;4992323;28;20589;-60
2022/12/19 08:54:18;;;;;;;7.53;3.75;;;12.80;99.90;;;;;;4992581;28;20057;-58
2022/12/19 08:57:21;;;;;;;6.45;4.43;;;13.30;99.90;;;;;;4992978;28;20053;-60
2022/12/19 09:00:25;;;;;;;12.65;5.32;;;13.60;99.90;;;;;;4991127;28;20046;-60
2022/12/19 09:03:30;;;;;;;7.45;5.07;;;12.70;99.90;;;;;;4994137;28;20053;-60
2022/12/19 09:06:34;;;;;;;6.28;4.70;;;11.90;99.90;;;;;;4992207;28;20049;-60
2022/12/19 09:09:38;;;;;;;6.68;5.25;;;11.40;99.90;;;;;;4992428;28;20401;-59
2022/12/19 09:12:42;;;;;;;20.67;6.97;;;11.50;99.90;;;;;;4976716;28;20057;-57
2022/12/19 09:15:46;;;;;;;24.63;6.95;;;11.30;99.90;;;;;;4973619;28;20517;-60
2022/12/19 09:18:52;;;;;;;34.25;8.23;;;10.80;99.90;;;;;;4991151;28;20050;-60
2022/12/19 09:21:58;;;;;;;58.58;9.80;;;9.80;99.90;;;;;;4990516;28;20053;-60
2022/12/19 09:25:04;;;;;;;42.85;7.38;;;9.70;99.90;;;;;;4996515;28;20042;-60
2022/12/19 09:28:07;;;;;;;89.47;9.45;;;9.70;99.90;;;;;;5001617;28;20432;-60
2022/12/19 09:31:18;;;;;;;84.95;8.48;;;9.60;99.90;;;;;;5007425;28;20045;-59
2022/12/19 09:34:27;;;;;;;16.30;6.30;;;9.60;99.90;;;;;;4990583;28;20398;-59
2022/12/19 09:37:32;;;;;;;29.35;6.25;;;10.40;99.90;;;;;;4988350;28;20057;-59
2022/12/19 09:41:10;;;;;;;24.35;6.75;;;11.50;99.90;;;;;;4991896;28;20747;-60
2022/12/19 09:44:36;;;;;;;33.78;6.22;;;13.10;99.90;;;;;;4983497;28;20045;-59
2022/12/19 09:47:46;;;;;;;128.93;10.48;;;13.80;99.90;;;;;;4994122;28;20053;-58
2022/12/19 09:50:58;;;;;;;11.85;6.43;;;13.30;99.90;;;;;;4994922;28;20515;-58
2022/12/19 09:54:11;;;;;;;;;;;13.70;99.90;;;;;;4996065;28;20046;-60
2022/12/19 09:57:24;;;;;;;55.35;8.70;;;14.50;99.90;;;;;;4992716;28;19933;-58
2022/12/19 10:00:36;;;;;;;86.80;8.48;;;14.60;99.90;;;;;;4984099;28;20053;-60
2022/12/19 10:03:49;;;;;;;294.65;14.60;;;13.60;99.90;;;;;;4997375;28;20046;-59
2022/12/19 10:06:54;;;;;;;279.52;13.80;;;12.10;99.90;;;;;;4990360;28;20041;-60
2022/12/19 10:09:59;;;;;;;17.08;5.90;;;11.20;99.90;;;;;;4988386;28;20033;-58
2022/12/19 10:13:24;;;;;;;107.75;9.23;;;10.90;99.90;;;;;;4991896;28;20552;-59
2022/12/19 10:17:08;;;;;;;37.22;7.28;;;10.30;99.90;;;;;;4991400;28;20061;-59
2022/12/19 10:20:38;;;;;;;115.07;9.48;;;10.80;99.90;;;;;;4995203;28;20045;-59
2022/12/19 10:24:15;;;;;;;22.85;6.43;;;11.40;99.90;;;;;;4989158;28;20046;-59
2022/12/19 10:27:19;;;;;;;31.50;6.82;;;12.70;99.90;;;;;;4991507;28;20050;-56
2022/12/19 10:30:25;;;;;;;22.85;6.55;;;13.60;99.90;;;;;;4990911;28;20053;-59
2022/12/19 10:33:41;;;;;;;19.75;6.47;;;14.10;99.90;;;;;;4986807;28;20531;-60
2022/12/19 10:36:49;;;;;;;7.95;5.50;;;14.40;99.90;;;;;;4990870;28;20045;-60
2022/12/19 10:39:58;;;;;;;9.02;6.55;;;14.00;99.90;;;;;;4991436;28;20058;-58
2022/12/19 10:43:16;;;;;;;11.13;6.80;;;13.90;99.90;;;;;;4990801;28;20041;-59
2022/12/19 10:46:39;;;;;;;12.25;6.70;;;13.60;99.90;;;;;;4990731;28;20409;-59
2022/12/19 10:49:44;;;;;;;73.65;10.00;;;13.20;99.90;;;;;;4990153;28;20041;-57
2022/12/19 10:53:14;;;;;;;34.40;8.27;;;11.90;99.90;;;;;;4992936;28;20054;-58
2022/12/19 10:56:25;;;;;;;20.15;8.05;;;11.40;99.90;;;;;;4989144;28;20057;-57
2022/12/19 10:59:28;;;;;;;24.25;9.05;;;11.40;99.90;;;;;;4987554;28;20049;-59
2022/12/19 11:02:46;;;;;;;60.35;10.60;;;10.60;99.90;;;;;;4990758;28;20053;-59
2022/12/19 11:05:52;;;;;;;17.35;8.43;;;10.20;99.90;;;;;;4993384;28;20053;-59
2022/12/19 11:09:18;;;;;;;10.98;7.55;;;10.10;99.90;;;;;;4991126;28;20512;-58
2022/12/19 11:12:25;;;;;;;21.75;9.35;;;10.30;99.90;;;;;;4985071;28;20057;-58
2022/12/19 11:15:32;;;;;;;33.53;10.38;;;10.20;99.90;;;;;;4991154;28;20053;-60
2022/12/19 11:18:42;;;;;;;13.20;9.55;;;10.10;99.90;;;;;;4993624;28;20073;-57
2022/12/19 11:21:47;;;;;;;14.23;9.43;;;10.00;99.90;;;;;;4994494;28;20064;-59
2022/12/19 11:24:55;;;;;;;14.07;9.25;;;10.00;99.90;;;;;;4988352;28;20042;-59
2022/12/19 11:28:04;;;;;;;19.17;10.88;;;10.10;99.90;;;;;;4987672;28;20041;-60
2022/12/19 11:31:14;;;;;;;25.02;11.82;;;10.20;99.90;;;;;;4989644;28;20045;-57
2022/12/19 11:34:22;;;;;;;20.52;11.80;;;10.10;99.90;;;;;;4988583;28;20049;-55
2022/12/19 11:37:46;;;;;;;16.80;9.77;;;10.00;99.90;;;;;;4987688;28;20053;-59
2022/12/19 11:40:55;;;;;;;16.30;10.75;;;10.20;99.90;;;;;;4988736;28;20045;-59
2022/12/19 11:44:04;;;;;;;15.95;10.20;;;10.30;99.90;;;;;;4990897;28;20053;-58
2022/12/19 11:47:32;;;;;;;20.05;11.65;;;10.40;99.90;;;;;;4989082;28;20041;-58
2022/12/19 11:50:55;;;;;;;20.30;12.57;;;10.20;99.90;;;;;;4996787;28;20069;-57
2022/12/19 11:54:06;;;;;;;17.85;11.25;;;10.10;99.90;;;;;;4982673;28;20504;-59
2022/12/19 11:57:12;;;;;;;12.95;8.90;;;10.60;99.90;;;;;;4987934;28;20053;-61
2022/12/19 11:59:41;;;;;;;14.70;10.05;;;10.90;99.90;;;;;;5048201;22;20045;-75
2022/12/19 12:03:27;;;;;;;16.10;10.50;;;10.50;99.90;;;;;;5050582;28;20048;-75
2022/12/19 12:06:37;;;;;;;15.73;10.40;;;11.00;99.90;;;;;;5035128;28;20053;-75
2022/12/19 12:09:46;;;;;;;14.57;10.05;;;11.50;99.90;;;;;;5054124;28;20048;-74
2022/12/19 12:13:14;;;;;;;11.73;8.70;;;11.80;99.90;;;;;;5050610;28;20044;-75
2022/12/19 12:16:27;;;;;;;16.13;9.32;;;12.10;99.90;;;;;;5049623;28;20048;-76
2022/12/19 12:19:34;;;;;;;16.08;11.48;;;12.10;99.90;;;;;;5048539;28;20040;-75
2022/12/19 12:22:39;;;;;;;13.55;9.50;;;12.30;99.90;;;;;;5050540;28;20195;-75
2022/12/19 12:25:46;;;;;;;14.70;9.95;;;13.00;99.90;;;;;;5053509;28;20052;-75
2022/12/19 12:29:09;;;;;;;15.20;10.25;;;13.70;99.90;;;;;;5049672;28;20048;-75
2022/12/19 12:32:24;;;;;;;14.07;10.20;;;14.70;99.90;;;;;;5040982;28;20032;-76
2022/12/19 12:35:32;;;;;;;13.93;9.48;;;15.90;99.90;;;;;;5045420;28;20044;-74
2022/12/19 12:38:47;;;;;;;12.80;8.75;;;17.00;99.90;;;;;;5053344;28;20518;-74
2022/12/19 12:42:04;;;;;;;15.15;8.07;;;17.40;99.90;;;;;;5048982;28;20044;-76
2022/12/19 12:45:40;;;;;;;11.48;8.55;;;16.30;99.90;;;;;;5048068;28;20040;-75
2022/12/19 12:48:59;;;;;;;12.95;9.75;;;16.00;99.90;;;;;;5048365;28;20040;-75
2022/12/19 12:52:08;;;;;;;10.88;8.27;;;15.60;99.90;;;;;;5051007;28;20040;-76
2022/12/19 12:55:39;;;;;;;12.95;7.50;;;15.50;99.90;;;;;;5034992;28;20036;-73
2022/12/19 12:58:46;;;;;;;12.43;8.57;;;15.80;99.90;;;;;;5051418;28;20047;-75
2022/12/19 13:01:53;;;;;;;14.80;8.40;;;14.90;99.90;;;;;;5048253;28;20375;-75
2022/12/19 13:05:00;;;;;;;11.00;8.48;;;14.50;99.90;;;;;;5049889;28;20044;-75
2022/12/19 13:08:37;;;;;;;11.48;7.90;;;13.70;99.90;;;;;;5051022;28;20048;-75
2022/12/19 13:15:36;;;;;;;11.95;8.05;;;14.80;99.90;;;;;;5052589;28;20051;-75
2022/12/19 13:19:13;;;;;;;13.07;8.73;;;15.80;99.90;;;;;;5047700;28;20047;-73
2022/12/19 13:22:21;;;;;;;11.45;8.30;;;16.20;99.90;;;;;;5046064;28;20050;-73
2022/12/19 13:25:34;;;;;;;10.25;8.32;;;15.90;99.90;;;;;;5039454;28;20392;-73
2022/12/19 13:28:40;;;;;;;12.18;8.98;;;15.40;99.90;;;;;;5048879;28;20102;-73
2022/12/19 13:32:06;;;;;;;15.35;9.70;;;14.40;99.90;;;;;;5048054;28;20039;-73
2022/12/19 13:35:11;;;;;;;12.80;8.95;;;14.50;99.90;;;;;;5050402;28;20052;-73
2022/12/19 13:38:18;;;;;;;14.85;9.60;;;14.20;99.90;;;;;;5050596;28;20104;-75
2022/12/19 13:44:57;;;;;;;15.20;10.60;;;13.70;99.90;;;;;;5048158;28;20060;-75
2022/12/19 13:48:03;;;;;;;14.27;9.80;;;13.30;99.90;;;;;;5048235;28;20036;-75
2022/12/19 13:51:09;;;;;;;13.93;10.48;;;13.00;99.90;;;;;;5048683;28;20036;-75
2022/12/19 13:54:19;;;;;;;13.85;10.02;;;12.80;99.90;;;;;;5043511;28;20404;-75
2022/12/19 13:57:29;;;;;;;12.75;9.30;;;12.70;99.90;;;;;;5050221;28;20040;-75
2022/12/19 14:00:40;;;;;;;13.70;9.60;;;12.90;99.90;;;;;;5037358;28;20047;-75
2022/12/19 14:03:46;;;;;;;11.80;8.88;;;13.10;99.90;;;;;;5042525;28;20048;-75
2022/12/19 14:06:57;;;;;;;12.23;8.63;;;12.90;99.90;;;;;;5051465;28;20056;-75
2022/12/19 14:10:04;;;;;;;11.95;9.23;;;12.80;99.90;;;;;;5048843;28;20388;-75
2022/12/19 14:16:39;;;;;;;10.95;8.07;;;12.70;99.90;;;;;;5043254;28;20491;-73
2022/12/19 14:19:47;;;;;;;12.30;8.55;;;13.50;99.90;;;;;;5048620;28;20040;-73
2022/12/19 14:22:56;;;;;;;14.13;9.05;;;14.40;99.90;;;;;;5041301;28;20395;-75
2022/12/19 14:26:01;;;;;;;17.95;11.50;;;14.60;99.90;;;;;;5049361;28;20052;-75
2022/12/19 14:29:15;;;;;;;20.40;15.00;;;15.20;99.90;;;;;;5049911;28;20499;-75
2022/12/19 14:32:20;;;;;;;14.15;9.70;;;14.60;99.90;;;;;;5044737;28;20037;-75
2022/12/19 14:35:30;;;;;;;13.75;9.77;;;13.30;99.90;;;;;;5046431;28;20052;-74
2022/12/19 14:38:36;;;;;;;13.55;8.80;;;12.30;99.90;;;;;;5047128;28;20040;-74
2022/12/19 14:45:36;;;;;;;16.73;9.43;;;10.80;99.90;;;;;;5047664;28;20044;-74
2022/12/19 14:48:51;;;;;;;10.85;8.65;;;10.50;99.90;;;;;;5041533;28;20384;-74
2022/12/19 14:51:55;;;;;;;14.30;8.57;;;10.20;99.90;;;;;;5044848;28;20388;-74
2022/12/19 14:55:18;;;;;;;12.88;8.73;;;10.00;99.90;;;;;;5046804;28;20052;-74
2022/12/19 14:58:31;;;;;;;14.50;9.40;;;9.90;99.90;;;;;;5042808;28;20044;-74
2022/12/19 15:01:50;;;;;;;14.15;9.30;;;9.90;99.90;;;;;;5044040;28;20044;-74
2022/12/19 15:05:11;;;;;;;13.18;9.23;;;9.80;99.90;;;;;;5045230;28;20044;-73
2022/12/19 15:08:28;;;;;;;17.50;11.65;;;9.60;99.90;;;;;;5048634;28;20040;-74
2022/12/19 15:15:21;;;;;;;22.27;12.48;;;9.40;99.90;;;;;;5046688;28;20506;-73
2022/12/19 15:18:33;;;;;;;27.10;15.88;;;9.20;99.90;;;;;;5035390;28;20048;-74
2022/12/19 15:21:37;;;;;;;20.77;12.88;;;8.90;99.90;;;;;;5045158;28;20486;-74
2022/12/19 15:24:41;;;;;;;18.05;10.15;;;8.60;99.90;;;;;;5046745;28;20403;-73
2022/12/19 15:27:46;;;;;;;17.63;10.13;;;8.30;99.90;;;;;;5041614;28;20059;-74
2022/12/19 15:31:00;;;;;;;20.02;12.95;;;8.20;99.90;;;;;;5034599;28;20372;-73
2022/12/19 15:34:21;;;;;;;16.98;11.00;;;8.30;99.90;;;;;;5045437;28;20060;-73
2022/12/19 15:37:25;;;;;;;15.07;10.00;;;8.30;99.90;;;;;;5047816;28;20040;-73
2022/12/19 15:40:30;;;;;;;26.77;16.00;;;8.20;99.90;;;;;;5042002;28;20057;-74
2022/12/19 15:43:35;;;;;;;21.65;13.25;;;8.20;99.90;;;;;;5042183;28;20047;-73
2022/12/19 15:46:39;;;;;;;22.73;13.15;;;8.20;99.90;;;;;;5044705;28;20048;-74
2022/12/19 15:49:43;;;;;;;18.58;13.75;;;8.20;99.90;;;;;;5041915;28;20411;-74
2022/12/19 15:52:47;;;;;;;22.48;14.60;;;8.30;99.90;;;;;;5042783;28;20044;-73
2022/12/19 15:55:53;;;;;;;24.60;15.85;;;8.30;99.90;;;;;;5046358;28;20040;-73
2022/12/19 15:59:00;;;;;;;29.10;18.70;;;8.40;99.90;;;;;;5047257;28;20051;-73
2022/12/19 16:02:15;;;;;;;29.80;18.98;;;8.40;99.90;;;;;;5046154;28;20052;-73
2022/12/19 16:05:22;;;;;;;27.08;17.33;;;8.40;99.90;;;;;;5038882;28;20059;-73
2022/12/19 16:08:27;;;;;;;33.75;21.48;;;8.30;99.90;;;;;;5045885;28;20044;-73
2022/12/19 16:11:31;;;;;;;37.22;21.50;;;8.30;99.90;;;;;;5048047;28;20048;-73
2022/12/19 16:14:35;;;;;;;33.58;21.10;;;8.30;99.90;;;;;;5041639;28;20048;-74
2022/12/19 16:17:39;;;;;;;35.72;24.13;;;8.20;99.90;;;;;;5046160;28;20053;-73
2022/12/19 16:20:44;;;;;;;47.45;29.50;;;8.10;99.90;;;;;;5043827;28;20423;-73
2022/12/19 16:23:48;;;;;;;38.40;23.65;;;8.20;99.90;;;;;;5020562;28;20035;-74
2022/12/19 16:26:54;;;;;;;47.83;26.50;;;8.20;99.90;;;;;;5046434;28;20040;-73
2022/12/19 16:30:22;;;;;;;44.40;26.77;;;8.20;99.90;;;;;;5044225;28;20519;-74
2022/12/19 16:33:28;;;;;;;31.30;20.88;;;8.20;99.90;;;;;;5047919;28;20503;-73